sensor_id;sensor_type;location;lat;lon;timestamp;temperature;humidity
24162;DHT22;12318;51.262;7.066;2023-04-24T00:00:17;10.20;99.90
24162;DHT22;12318;51.262;7.066;2023-04-24T00:02:44;10.10;99.90
24162;DHT22;12318;51.262;7.066;2023-04-24T00:05:13;10.10;99.90
24162;DHT22;12318;51.262;7.066;2023-04-24T00:07:39;10.00;99.90
24162;DHT22;12318;51.262;7.066;2023-04-24T00:10:09;10.00;99.90
24162;DHT22;12318;51.262;7.066;2023-04-24T00:12:35;10.00;99.90
24162;DHT22;12318;51.262;7.066;2023-04-24T00:15:03;10.00;99.90
24162;DHT22;12318;51.262;7.066;2023-04-24T00:17:29;10.10;99.90
24162;DHT22;12318;51.262;7.066;2023-04-24T00:19:56;10.10;99.90
24162;DHT22;12318;51.262;7.066;2023-04-24T00:27:03;10.10;99.90
24162;DHT22;12318;51.262;7.066;2023-04-24T00:30:00;10.10;99.90
24162;DHT22;12318;51.262;7.066;2023-04-24T00:32:35;9.90;99.90
24162;DHT22;12318;51.262;7.066;2023-04-24T00:35:01;9.90;99.90
24162;DHT22;12318;51.262;7.066;2023-04-24T00:37:29;9.80;99.90
24162;DHT22;12318;51.262;7.066;2023-04-24T00:39:55;9.80;99.90
24162;DHT22;12318;51.262;7.066;2023-04-24T00:42:23;9.80;99.90
24162;DHT22;12318;51.262;7.066;2023-04-24T00:44:51;9.80;99.90
24162;DHT22;12318;51.262;7.066;2023-04-24T00:47:20;9.70;99.90
24162;DHT22;12318;51.262;7.066;2023-04-24T00:49:54;9.80;99.90
24162;DHT22;12318;51.262;7.066;2023-04-24T00:52:23;9.90;99.90
24162;DHT22;12318;51.262;7.066;2023-04-24T00:54:50;9.90;99.90
24162;DHT22;12318;51.262;7.066;2023-04-24T00:57:16;9.90;99.90
24162;DHT22;12318;51.262;7.066;2023-04-24T00:59:45;9.80;99.90
24162;DHT22;12318;51.262;7.066;2023-04-24T01:02:11;9.90;99.90
24162;DHT22;12318;51.262;7.066;2023-04-24T01:04:41;9.90;99.90
24162;DHT22;12318;51.262;7.066;2023-04-24T01:07:51;10.00;99.90
24162;DHT22;12318;51.262;7.066;2023-04-24T01:18:15;9.80;99.90
24162;DHT22;12318;51.262;7.066;2023-04-24T01:21:39;9.80;99.90
24162;DHT22;12318;51.262;7.066;2023-04-24T01:24:27;9.80;99.90
24162;DHT22;12318;51.262;7.066;2023-04-24T01:30:24;9.90;99.90
24162;DHT22;12318;51.262;7.066;2023-04-24T01:33:01;9.90;99.90
24162;DHT22;12318;51.262;7.066;2023-04-24T01:35:27;9.80;99.90
24162;DHT22;12318;51.262;7.066;2023-04-24T01:37:53;9.70;99.90
24162;DHT22;12318;51.262;7.066;2023-04-24T01:43:56;9.60;99.90
24162;DHT22;12318;51.262;7.066;2023-04-24T01:46:42;9.50;99.90
24162;DHT22;12318;51.262;7.066;2023-04-24T01:49:10;9.30;99.90
24162;DHT22;12318;51.262;7.066;2023-04-24T01:51:36;9.30;99.90
24162;DHT22;12318;51.262;7.066;2023-04-24T01:57:07;9.20;99.90
24162;DHT22;12318;51.262;7.066;2023-04-24T01:59:36;9.00;99.90
24162;DHT22;12318;51.262;7.066;2023-04-24T02:02:08;9.10;99.90
24162;DHT22;12318;51.262;7.066;2023-04-24T02:11:37;8.90;99.90
24162;DHT22;12318;51.262;7.066;2023-04-24T02:14:32;8.80;99.90
24162;DHT22;12318;51.262;7.066;2023-04-24T02:17:19;8.70;99.90
24162;DHT22;12318;51.262;7.066;2023-04-24T02:20:24;8.70;99.90
24162;DHT22;12318;51.262;7.066;2023-04-24T02:23:41;8.60;99.90
24162;DHT22;12318;51.262;7.066;2023-04-24T02:26:41;8.60;99.90
24162;DHT22;12318;51.262;7.066;2023-04-24T02:29:45;8.60;99.90
24162;DHT22;12318;51.262;7.066;2023-04-24T02:32:30;8.60;99.90
24162;DHT22;12318;51.262;7.066;2023-04-24T02:34:56;8.60;99.90
24162;DHT22;12318;51.262;7.066;2023-04-24T02:37:22;8.60;99.90
24162;DHT22;12318;51.262;7.066;2023-04-24T02:39:50;8.60;99.90
24162;DHT22;12318;51.262;7.066;2023-04-24T02:42:16;8.50;99.90
24162;DHT22;12318;51.262;7.066;2023-04-24T02:44:42;8.50;99.90
24162;DHT22;12318;51.262;7.066;2023-04-24T02:47:08;8.50;99.90
24162;DHT22;12318;51.262;7.066;2023-04-24T02:49:34;8.50;99.90
24162;DHT22;12318;51.262;7.066;2023-04-24T02:52:00;8.50;99.90
24162;DHT22;12318;51.262;7.066;2023-04-24T02:54:28;8.50;99.90
24162;DHT22;12318;51.262;7.066;2023-04-24T02:56:54;8.50;99.90
24162;DHT22;12318;51.262;7.066;2023-04-24T02:59:20;8.60;99.90
24162;DHT22;12318;51.262;7.066;2023-04-24T03:01:46;8.60;99.90
24162;DHT22;12318;51.262;7.066;2023-04-24T03:04:11;8.70;99.90
24162;DHT22;12318;51.262;7.066;2023-04-24T03:06:37;8.70;99.90
24162;DHT22;12318;51.262;7.066;2023-04-24T03:09:07;8.70;99.90
24162;DHT22;12318;51.262;7.066;2023-04-24T03:11:33;8.70;99.90
24162;DHT22;12318;51.262;7.066;2023-04-24T03:13:59;8.60;99.90
24162;DHT22;12318;51.262;7.066;2023-04-24T03:16:33;8.70;99.90
24162;DHT22;12318;51.262;7.066;2023-04-24T03:19:09;8.60;99.90
24162;DHT22;12318;51.262;7.066;2023-04-24T03:21:35;8.70;99.90
24162;DHT22;12318;51.262;7.066;2023-04-24T03:27:37;8.60;99.90
24162;DHT22;12318;51.262;7.066;2023-04-24T03:30:15;8.60;99.90
24162;DHT22;12318;51.262;7.066;2023-04-24T03:40:47;8.80;99.90
24162;DHT22;12318;51.262;7.066;2023-04-24T03:44:02;8.80;99.90
24162;DHT22;12318;51.262;7.066;2023-04-24T03:46:36;8.80;99.90
24162;DHT22;12318;51.262;7.066;2023-04-24T03:49:01;8.70;99.90
24162;DHT22;12318;51.262;7.066;2023-04-24T03:51:27;8.60;99.90
24162;DHT22;12318;51.262;7.066;2023-04-24T03:53:53;8.70;99.90
24162;DHT22;12318;51.262;7.066;2023-04-24T03:56:19;8.80;99.90
24162;DHT22;12318;51.262;7.066;2023-04-24T03:58:50;8.70;99.90
24162;DHT22;12318;51.262;7.066;2023-04-24T04:01:17;8.70;99.90
24162;DHT22;12318;51.262;7.066;2023-04-24T04:03:49;8.80;99.90
24162;DHT22;12318;51.262;7.066;2023-04-24T04:06:14;8.70;99.90
24162;DHT22;12318;51.262;7.066;2023-04-24T04:08:46;8.70;99.90
24162;DHT22;12318;51.262;7.066;2023-04-24T04:11:13;8.70;99.90
24162;DHT22;12318;51.262;7.066;2023-04-24T04:13:38;8.60;99.90
24162;DHT22;12318;51.262;7.066;2023-04-24T04:16:04;8.70;99.90
24162;DHT22;12318;51.262;7.066;2023-04-24T04:18:30;8.60;99.90
24162;DHT22;12318;51.262;7.066;2023-04-24T04:20:56;8.60;99.90
24162;DHT22;12318;51.262;7.066;2023-04-24T04:23:22;8.60;99.90
24162;DHT22;12318;51.262;7.066;2023-04-24T04:25:50;8.70;99.90
24162;DHT22;12318;51.262;7.066;2023-04-24T04:28:17;8.70;99.90
24162;DHT22;12318;51.262;7.066;2023-04-24T04:30:45;8.80;99.90
24162;DHT22;12318;51.262;7.066;2023-04-24T04:33:12;8.80;99.90
24162;DHT22;12318;51.262;7.066;2023-04-24T04:35:38;8.90;99.90
24162;DHT22;12318;51.262;7.066;2023-04-24T04:38:04;8.90;99.90
24162;DHT22;12318;51.262;7.066;2023-04-24T04:40:30;8.90;99.90
24162;DHT22;12318;51.262;7.066;2023-04-24T04:42:55;8.80;99.90
24162;DHT22;12318;51.262;7.066;2023-04-24T04:45:21;8.80;99.90
24162;DHT22;12318;51.262;7.066;2023-04-24T04:47:47;8.70;99.90
24162;DHT22;12318;51.262;7.066;2023-04-24T04:50:16;8.60;99.90
24162;DHT22;12318;51.262;7.066;2023-04-24T04:52:52;8.60;99.90
24162;DHT22;12318;51.262;7.066;2023-04-24T04:55:20;8.70;99.90
24162;DHT22;12318;51.262;7.066;2023-04-24T04:57:46;8.70;99.90
24162;DHT22;12318;51.262;7.066;2023-04-24T05:00:23;8.70;99.90
24162;DHT22;12318;51.262;7.066;2023-04-24T05:02:52;8.70;99.90
24162;DHT22;12318;51.262;7.066;2023-04-24T05:05:18;8.70;99.90
24162;DHT22;12318;51.262;7.066;2023-04-24T05:07:44;8.70;99.90
24162;DHT22;12318;51.262;7.066;2023-04-24T05:10:10;8.70;99.90
24162;DHT22;12318;51.262;7.066;2023-04-24T05:12:38;8.70;99.90
24162;DHT22;12318;51.262;7.066;2023-04-24T05:15:10;8.80;99.90
24162;DHT22;12318;51.262;7.066;2023-04-24T05:17:36;8.80;99.90
24162;DHT22;12318;51.262;7.066;2023-04-24T05:20:03;8.50;99.90
24162;DHT22;12318;51.262;7.066;2023-04-24T05:22:32;8.50;99.90
24162;DHT22;12318;51.262;7.066;2023-04-24T05:25:05;8.40;99.90
24162;DHT22;12318;51.262;7.066;2023-04-24T05:27:33;8.40;99.90
24162;DHT22;12318;51.262;7.066;2023-04-24T05:29:59;8.30;99.90
24162;DHT22;12318;51.262;7.066;2023-04-24T05:32:28;8.30;99.90
24162;DHT22;12318;51.262;7.066;2023-04-24T05:34:56;8.20;99.90
24162;DHT22;12318;51.262;7.066;2023-04-24T05:37:25;8.30;99.90
24162;DHT22;12318;51.262;7.066;2023-04-24T05:39:51;8.40;99.90
24162;DHT22;12318;51.262;7.066;2023-04-24T05:42:20;8.40;99.90
24162;DHT22;12318;51.262;7.066;2023-04-24T05:44:46;8.30;99.90
24162;DHT22;12318;51.262;7.066;2023-04-24T05:47:12;8.20;99.90
24162;DHT22;12318;51.262;7.066;2023-04-24T05:49:45;8.30;99.90
24162;DHT22;12318;51.262;7.066;2023-04-24T05:52:11;8.30;99.90
24162;DHT22;12318;51.262;7.066;2023-04-24T05:54:45;8.40;99.90
24162;DHT22;12318;51.262;7.066;2023-04-24T05:57:14;8.40;99.90
24162;DHT22;12318;51.262;7.066;2023-04-24T05:59:42;8.30;99.90
24162;DHT22;12318;51.262;7.066;2023-04-24T06:02:08;8.30;99.90
24162;DHT22;12318;51.262;7.066;2023-04-24T06:05:32;8.20;99.90
24162;DHT22;12318;51.262;7.066;2023-04-24T06:08:00;8.10;99.90
24162;DHT22;12318;51.262;7.066;2023-04-24T06:10:26;8.20;99.90
24162;DHT22;12318;51.262;7.066;2023-04-24T06:12:55;8.30;99.90
24162;DHT22;12318;51.262;7.066;2023-04-24T06:15:34;8.20;99.90
24162;DHT22;12318;51.262;7.066;2023-04-24T06:18:00;8.20;99.90
24162;DHT22;12318;51.262;7.066;2023-04-24T06:20:29;8.10;99.90
24162;DHT22;12318;51.262;7.066;2023-04-24T06:23:01;8.20;99.90
24162;DHT22;12318;51.262;7.066;2023-04-24T06:25:27;8.00;99.90
24162;DHT22;12318;51.262;7.066;2023-04-24T06:27:59;8.00;99.90
24162;DHT22;12318;51.262;7.066;2023-04-24T06:30:40;8.00;99.90
24162;DHT22;12318;51.262;7.066;2023-04-24T06:33:06;8.00;99.90
24162;DHT22;12318;51.262;7.066;2023-04-24T06:35:32;8.00;99.90
24162;DHT22;12318;51.262;7.066;2023-04-24T06:38:05;8.00;99.90
24162;DHT22;12318;51.262;7.066;2023-04-24T06:40:57;8.10;99.90
24162;DHT22;12318;51.262;7.066;2023-04-24T06:43:43;8.10;99.90
24162;DHT22;12318;51.262;7.066;2023-04-24T06:46:16;8.10;99.90
24162;DHT22;12318;51.262;7.066;2023-04-24T06:48:49;8.10;99.90
24162;DHT22;12318;51.262;7.066;2023-04-24T06:51:16;8.10;99.90
24162;DHT22;12318;51.262;7.066;2023-04-24T06:53:43;8.00;99.90
24162;DHT22;12318;51.262;7.066;2023-04-24T06:56:14;8.10;99.90
24162;DHT22;12318;51.262;7.066;2023-04-24T06:58:40;8.00;99.90
24162;DHT22;12318;51.262;7.066;2023-04-24T07:04:12;8.00;99.90
24162;DHT22;12318;51.262;7.066;2023-04-24T07:06:38;7.90;99.90
24162;DHT22;12318;51.262;7.066;2023-04-24T07:09:04;8.10;99.90
24162;DHT22;12318;51.262;7.066;2023-04-24T07:11:39;8.10;99.90
24162;DHT22;12318;51.262;7.066;2023-04-24T07:14:15;8.10;99.90
24162;DHT22;12318;51.262;7.066;2023-04-24T07:16:55;8.00;99.90
24162;DHT22;12318;51.262;7.066;2023-04-24T07:19:24;8.00;99.90
24162;DHT22;12318;51.262;7.066;2023-04-24T07:21:50;8.00;99.90
24162;DHT22;12318;51.262;7.066;2023-04-24T07:24:16;8.20;99.90
24162;DHT22;12318;51.262;7.066;2023-04-24T07:26:42;8.30;99.90
24162;DHT22;12318;51.262;7.066;2023-04-24T07:29:08;8.00;99.90
24162;DHT22;12318;51.262;7.066;2023-04-24T07:31:42;8.10;99.90
24162;DHT22;12318;51.262;7.066;2023-04-24T07:34:10;8.10;99.90
24162;DHT22;12318;51.262;7.066;2023-04-24T07:36:40;8.10;99.90
24162;DHT22;12318;51.262;7.066;2023-04-24T07:39:06;8.20;99.90
24162;DHT22;12318;51.262;7.066;2023-04-24T07:41:33;8.20;99.90
24162;DHT22;12318;51.262;7.066;2023-04-24T07:44:02;8.20;99.90
24162;DHT22;12318;51.262;7.066;2023-04-24T07:46:28;8.20;99.90
24162;DHT22;12318;51.262;7.066;2023-04-24T07:51:52;8.30;99.90
24162;DHT22;12318;51.262;7.066;2023-04-24T07:54:44;8.30;99.90
24162;DHT22;12318;51.262;7.066;2023-04-24T07:57:15;8.20;99.90
24162;DHT22;12318;51.262;7.066;2023-04-24T07:59:41;7.90;99.90
24162;DHT22;12318;51.262;7.066;2023-04-24T08:02:08;8.00;99.90
24162;DHT22;12318;51.262;7.066;2023-04-24T08:04:37;7.90;99.90
24162;DHT22;12318;51.262;7.066;2023-04-24T08:07:03;7.80;99.90
24162;DHT22;12318;51.262;7.066;2023-04-24T08:09:29;7.60;99.90
24162;DHT22;12318;51.262;7.066;2023-04-24T08:12:00;7.40;99.90
24162;DHT22;12318;51.262;7.066;2023-04-24T08:14:27;7.30;99.90
24162;DHT22;12318;51.262;7.066;2023-04-24T08:16:54;7.20;99.90
24162;DHT22;12318;51.262;7.066;2023-04-24T08:19:21;7.20;99.90
24162;DHT22;12318;51.262;7.066;2023-04-24T08:21:50;7.10;99.90
24162;DHT22;12318;51.262;7.066;2023-04-24T08:24:19;7.20;99.90
24162;DHT22;12318;51.262;7.066;2023-04-24T08:26:46;7.10;99.90
24162;DHT22;12318;51.262;7.066;2023-04-24T08:29:15;7.10;99.90
24162;DHT22;12318;51.262;7.066;2023-04-24T08:31:41;7.20;99.90
24162;DHT22;12318;51.262;7.066;2023-04-24T08:34:10;7.10;99.90
24162;DHT22;12318;51.262;7.066;2023-04-24T08:36:41;7.10;99.90
24162;DHT22;12318;51.262;7.066;2023-04-24T08:39:07;7.10;99.90
24162;DHT22;12318;51.262;7.066;2023-04-24T08:41:34;7.20;99.90
24162;DHT22;12318;51.262;7.066;2023-04-24T08:44:02;7.20;99.90
24162;DHT22;12318;51.262;7.066;2023-04-24T08:46:30;7.40;99.90
24162;DHT22;12318;51.262;7.066;2023-04-24T08:48:58;7.40;99.90
24162;DHT22;12318;51.262;7.066;2023-04-24T08:51:32;7.40;99.90
24162;DHT22;12318;51.262;7.066;2023-04-24T08:54:14;7.50;99.90
24162;DHT22;12318;51.262;7.066;2023-04-24T08:56:40;7.40;99.90
24162;DHT22;12318;51.262;7.066;2023-04-24T08:59:08;7.60;99.90
24162;DHT22;12318;51.262;7.066;2023-04-24T09:01:34;7.60;99.90
24162;DHT22;12318;51.262;7.066;2023-04-24T09:04:03;7.70;99.90
24162;DHT22;12318;51.262;7.066;2023-04-24T09:06:32;7.80;99.90
24162;DHT22;12318;51.262;7.066;2023-04-24T09:09:09;7.80;99.90
24162;DHT22;12318;51.262;7.066;2023-04-24T09:11:40;7.80;99.90
24162;DHT22;12318;51.262;7.066;2023-04-24T09:14:06;7.90;99.90
24162;DHT22;12318;51.262;7.066;2023-04-24T09:16:33;8.00;99.90
24162;DHT22;12318;51.262;7.066;2023-04-24T09:18:59;8.00;99.90
24162;DHT22;12318;51.262;7.066;2023-04-24T09:21:34;8.10;99.90
24162;DHT22;12318;51.262;7.066;2023-04-24T09:24:07;8.00;99.90
24162;DHT22;12318;51.262;7.066;2023-04-24T09:26:36;7.90;99.90
24162;DHT22;12318;51.262;7.066;2023-04-24T09:29:03;8.00;99.90
24162;DHT22;12318;51.262;7.066;2023-04-24T09:31:30;7.80;99.90
24162;DHT22;12318;51.262;7.066;2023-04-24T09:34:03;7.80;99.90
24162;DHT22;12318;51.262;7.066;2023-04-24T09:36:37;7.90;99.90
24162;DHT22;12318;51.262;7.066;2023-04-24T09:39:08;7.80;99.90
24162;DHT22;12318;51.262;7.066;2023-04-24T09:44:17;7.70;99.90
24162;DHT22;12318;51.262;7.066;2023-04-24T09:46:49;7.90;99.90
24162;DHT22;12318;51.262;7.066;2023-04-24T09:49:32;7.80;99.90
24162;DHT22;12318;51.262;7.066;2023-04-24T09:52:07;7.90;99.90
24162;DHT22;12318;51.262;7.066;2023-04-24T09:54:38;7.90;99.90
24162;DHT22;12318;51.262;7.066;2023-04-24T09:57:04;8.00;99.90
24162;DHT22;12318;51.262;7.066;2023-04-24T09:59:38;8.00;99.90
24162;DHT22;12318;51.262;7.066;2023-04-24T10:02:19;7.90;99.90
24162;DHT22;12318;51.262;7.066;2023-04-24T10:05:01;7.90;99.90
24162;DHT22;12318;51.262;7.066;2023-04-24T10:07:48;7.80;99.90
24162;DHT22;12318;51.262;7.066;2023-04-24T10:10:16;8.00;99.90
24162;DHT22;12318;51.262;7.066;2023-04-24T10:12:45;8.10;99.90
24162;DHT22;12318;51.262;7.066;2023-04-24T10:15:11;8.10;99.90
24162;DHT22;12318;51.262;7.066;2023-04-24T10:17:39;8.20;99.90
24162;DHT22;12318;51.262;7.066;2023-04-24T10:20:06;8.10;99.90
24162;DHT22;12318;51.262;7.066;2023-04-24T10:22:32;8.10;99.90
24162;DHT22;12318;51.262;7.066;2023-04-24T10:24:58;8.10;99.90
24162;DHT22;12318;51.262;7.066;2023-04-24T10:27:26;8.20;99.90
24162;DHT22;12318;51.262;7.066;2023-04-24T10:29:53;8.20;99.90
24162;DHT22;12318;51.262;7.066;2023-04-24T10:32:19;8.30;99.90
24162;DHT22;12318;51.262;7.066;2023-04-24T10:34:44;8.00;99.90
24162;DHT22;12318;51.262;7.066;2023-04-24T10:37:11;8.20;99.90
24162;DHT22;12318;51.262;7.066;2023-04-24T10:39:38;8.40;99.90
24162;DHT22;12318;51.262;7.066;2023-04-24T10:42:15;8.30;99.90
24162;DHT22;12318;51.262;7.066;2023-04-24T10:44:41;8.40;99.90
24162;DHT22;12318;51.262;7.066;2023-04-24T10:47:13;8.40;99.90
24162;DHT22;12318;51.262;7.066;2023-04-24T10:49:39;8.50;99.90
24162;DHT22;12318;51.262;7.066;2023-04-24T10:52:05;8.40;99.90
24162;DHT22;12318;51.262;7.066;2023-04-24T10:54:44;8.20;99.90
24162;DHT22;12318;51.262;7.066;2023-04-24T10:59:50;8.30;99.90
24162;DHT22;12318;51.262;7.066;2023-04-24T11:02:17;8.30;99.90
24162;DHT22;12318;51.262;7.066;2023-04-24T11:04:43;8.50;99.90
24162;DHT22;12318;51.262;7.066;2023-04-24T11:07:13;8.40;99.90
24162;DHT22;12318;51.262;7.066;2023-04-24T11:09:39;8.10;99.90
24162;DHT22;12318;51.262;7.066;2023-04-24T11:12:11;8.10;99.90
24162;DHT22;12318;51.262;7.066;2023-04-24T11:17:35;8.20;99.90
24162;DHT22;12318;51.262;7.066;2023-04-24T11:20:04;8.40;99.90
24162;DHT22;12318;51.262;7.066;2023-04-24T11:22:36;8.40;99.90
24162;DHT22;12318;51.262;7.066;2023-04-24T11:25:05;8.40;99.90
24162;DHT22;12318;51.262;7.066;2023-04-24T11:27:42;8.60;99.90
24162;DHT22;12318;51.262;7.066;2023-04-24T11:30:09;8.80;99.90
24162;DHT22;12318;51.262;7.066;2023-04-24T11:32:39;9.10;99.90
24162;DHT22;12318;51.262;7.066;2023-04-24T11:37:37;9.00;99.90
24162;DHT22;12318;51.262;7.066;2023-04-24T11:40:08;9.00;99.90
24162;DHT22;12318;51.262;7.066;2023-04-24T11:42:39;8.70;99.90
24162;DHT22;12318;51.262;7.066;2023-04-24T11:45:15;8.40;99.90
24162;DHT22;12318;51.262;7.066;2023-04-24T11:47:47;8.50;99.90
24162;DHT22;12318;51.262;7.066;2023-04-24T11:50:16;8.50;99.90
24162;DHT22;12318;51.262;7.066;2023-04-24T11:52:45;8.50;99.90
24162;DHT22;12318;51.262;7.066;2023-04-24T11:57:44;8.70;99.90
24162;DHT22;12318;51.262;7.066;2023-04-24T12:00:18;8.90;99.90
24162;DHT22;12318;51.262;7.066;2023-04-24T12:02:45;9.10;99.90
24162;DHT22;12318;51.262;7.066;2023-04-24T12:05:34;9.40;99.90
24162;DHT22;12318;51.262;7.066;2023-04-24T12:08:26;9.20;99.90
24162;DHT22;12318;51.262;7.066;2023-04-24T12:11:00;9.40;99.90
24162;DHT22;12318;51.262;7.066;2023-04-24T12:13:28;9.00;99.90
24162;DHT22;12318;51.262;7.066;2023-04-24T12:15:56;8.90;99.90
24162;DHT22;12318;51.262;7.066;2023-04-24T12:21:22;8.60;99.90
24162;DHT22;12318;51.262;7.066;2023-04-24T12:23:48;8.20;99.90
24162;DHT22;12318;51.262;7.066;2023-04-24T12:26:18;8.50;99.90
24162;DHT22;12318;51.262;7.066;2023-04-24T12:28:54;8.50;99.90
24162;DHT22;12318;51.262;7.066;2023-04-24T12:31:22;8.40;99.90
24162;DHT22;12318;51.262;7.066;2023-04-24T12:34:21;8.50;99.90
24162;DHT22;12318;51.262;7.066;2023-04-24T12:36:50;8.70;99.90
24162;DHT22;12318;51.262;7.066;2023-04-24T12:39:25;8.90;99.90
24162;DHT22;12318;51.262;7.066;2023-04-24T12:41:58;8.60;99.90
24162;DHT22;12318;51.262;7.066;2023-04-24T12:44:32;8.80;99.90
24162;DHT22;12318;51.262;7.066;2023-04-24T12:47:07;8.90;99.90
24162;DHT22;12318;51.262;7.066;2023-04-24T12:49:36;8.80;99.90
24162;DHT22;12318;51.262;7.066;2023-04-24T12:52:08;8.80;99.90
24162;DHT22;12318;51.262;7.066;2023-04-24T12:54:33;8.90;99.90
24162;DHT22;12318;51.262;7.066;2023-04-24T12:56:59;9.00;99.90
24162;DHT22;12318;51.262;7.066;2023-04-24T12:59:31;9.30;99.90
24162;DHT22;12318;51.262;7.066;2023-04-24T13:02:07;9.30;99.90
24162;DHT22;12318;51.262;7.066;2023-04-24T13:04:37;9.40;99.90
24162;DHT22;12318;51.262;7.066;2023-04-24T13:07:17;9.70;99.90
24162;DHT22;12318;51.262;7.066;2023-04-24T13:09:49;9.80;99.90
24162;DHT22;12318;51.262;7.066;2023-04-24T13:12:19;9.90;99.90
24162;DHT22;12318;51.262;7.066;2023-04-24T13:14:45;10.10;99.90
24162;DHT22;12318;51.262;7.066;2023-04-24T13:17:17;10.00;99.90
24162;DHT22;12318;51.262;7.066;2023-04-24T13:19:45;10.20;99.90
24162;DHT22;12318;51.262;7.066;2023-04-24T13:22:14;10.10;99.90
24162;DHT22;12318;51.262;7.066;2023-04-24T13:24:44;9.80;99.90
24162;DHT22;12318;51.262;7.066;2023-04-24T13:27:17;9.80;99.90
24162;DHT22;12318;51.262;7.066;2023-04-24T13:29:43;9.80;99.90
24162;DHT22;12318;51.262;7.066;2023-04-24T13:32:09;9.90;99.90
24162;DHT22;12318;51.262;7.066;2023-04-24T13:34:35;9.90;99.90
24162;DHT22;12318;51.262;7.066;2023-04-24T13:37:02;9.70;99.90
24162;DHT22;12318;51.262;7.066;2023-04-24T13:39:29;9.90;99.90
24162;DHT22;12318;51.262;7.066;2023-04-24T13:41:55;9.90;99.90
24162;DHT22;12318;51.262;7.066;2023-04-24T13:44:22;9.90;99.90
24162;DHT22;12318;51.262;7.066;2023-04-24T13:46:49;9.70;99.90
24162;DHT22;12318;51.262;7.066;2023-04-24T13:49:17;9.70;99.90
24162;DHT22;12318;51.262;7.066;2023-04-24T13:51:44;9.80;99.90
24162;DHT22;12318;51.262;7.066;2023-04-24T13:54:09;9.80;99.90
24162;DHT22;12318;51.262;7.066;2023-04-24T13:56:35;9.70;99.90
24162;DHT22;12318;51.262;7.066;2023-04-24T13:59:01;9.90;99.90
24162;DHT22;12318;51.262;7.066;2023-04-24T14:01:27;9.70;99.90
24162;DHT22;12318;51.262;7.066;2023-04-24T14:03:54;9.80;99.90
24162;DHT22;12318;51.262;7.066;2023-04-24T14:06:20;9.40;99.90
24162;DHT22;12318;51.262;7.066;2023-04-24T14:08:47;9.40;99.90
24162;DHT22;12318;51.262;7.066;2023-04-24T14:11:13;9.60;99.90
24162;DHT22;12318;51.262;7.066;2023-04-24T14:13:41;9.50;99.90
24162;DHT22;12318;51.262;7.066;2023-04-24T14:16:08;9.90;99.90
24162;DHT22;12318;51.262;7.066;2023-04-24T14:18:33;10.00;99.90
24162;DHT22;12318;51.262;7.066;2023-04-24T14:21:00;10.10;99.90
24162;DHT22;12318;51.262;7.066;2023-04-24T14:23:27;10.10;99.90
24162;DHT22;12318;51.262;7.066;2023-04-24T14:25:53;9.90;99.90
24162;DHT22;12318;51.262;7.066;2023-04-24T14:28:21;9.80;99.90
24162;DHT22;12318;51.262;7.066;2023-04-24T14:30:47;9.60;99.90
24162;DHT22;12318;51.262;7.066;2023-04-24T14:33:13;9.70;99.90
24162;DHT22;12318;51.262;7.066;2023-04-24T14:35:40;9.90;99.90
24162;DHT22;12318;51.262;7.066;2023-04-24T14:38:07;9.70;99.70
24162;DHT22;12318;51.262;7.066;2023-04-24T14:40:33;9.60;98.80
24162;DHT22;12318;51.262;7.066;2023-04-24T14:42:59;9.90;99.90
24162;DHT22;12318;51.262;7.066;2023-04-24T14:45:25;10.20;99.90
24162;DHT22;12318;51.262;7.066;2023-04-24T14:47:52;10.40;99.90
24162;DHT22;12318;51.262;7.066;2023-04-24T14:50:20;10.40;98.90
24162;DHT22;12318;51.262;7.066;2023-04-24T14:52:49;10.50;99.30
24162;DHT22;12318;51.262;7.066;2023-04-24T14:55:15;10.40;98.60
24162;DHT22;12318;51.262;7.066;2023-04-24T14:57:43;10.30;99.10
24162;DHT22;12318;51.262;7.066;2023-04-24T15:00:10;10.20;99.10
24162;DHT22;12318;51.262;7.066;2023-04-24T15:02:37;10.20;99.90
24162;DHT22;12318;51.262;7.066;2023-04-24T15:05:07;10.10;98.50
24162;DHT22;12318;51.262;7.066;2023-04-24T15:07:33;10.20;98.70
24162;DHT22;12318;51.262;7.066;2023-04-24T15:10:01;10.40;99.90
24162;DHT22;12318;51.262;7.066;2023-04-24T15:12:27;10.40;99.10
24162;DHT22;12318;51.262;7.066;2023-04-24T15:14:57;10.30;98.40
24162;DHT22;12318;51.262;7.066;2023-04-24T15:17:23;10.60;99.00
24162;DHT22;12318;51.262;7.066;2023-04-24T15:19:49;10.60;97.70
24162;DHT22;12318;51.262;7.066;2023-04-24T15:22:15;10.40;97.10
24162;DHT22;12318;51.262;7.066;2023-04-24T15:24:40;10.30;96.80
24162;DHT22;12318;51.262;7.066;2023-04-24T15:27:09;10.10;96.40
24162;DHT22;12318;51.262;7.066;2023-04-24T15:29:35;10.00;97.10
24162;DHT22;12318;51.262;7.066;2023-04-24T15:32:01;9.90;96.60
24162;DHT22;12318;51.262;7.066;2023-04-24T15:34:27;9.90;96.60
24162;DHT22;12318;51.262;7.066;2023-04-24T15:36:53;10.20;98.00
24162;DHT22;12318;51.262;7.066;2023-04-24T15:39:22;10.30;97.50
24162;DHT22;12318;51.262;7.066;2023-04-24T15:41:50;10.10;96.60
24162;DHT22;12318;51.262;7.066;2023-04-24T15:44:15;10.00;97.40
24162;DHT22;12318;51.262;7.066;2023-04-24T15:46:41;10.00;97.50
24162;DHT22;12318;51.262;7.066;2023-04-24T15:49:07;9.90;98.00
24162;DHT22;12318;51.262;7.066;2023-04-24T15:51:34;9.70;96.70
24162;DHT22;12318;51.262;7.066;2023-04-24T15:54:00;9.80;97.10
24162;DHT22;12318;51.262;7.066;2023-04-24T15:56:25;10.30;97.80
24162;DHT22;12318;51.262;7.066;2023-04-24T15:58:52;10.20;97.30
24162;DHT22;12318;51.262;7.066;2023-04-24T16:01:17;10.00;97.70
24162;DHT22;12318;51.262;7.066;2023-04-24T16:03:43;10.10;97.90
24162;DHT22;12318;51.262;7.066;2023-04-24T16:06:09;10.00;95.40
24162;DHT22;12318;51.262;7.066;2023-04-24T16:08:35;10.20;95.60
24162;DHT22;12318;51.262;7.066;2023-04-24T16:11:01;10.40;96.40
24162;DHT22;12318;51.262;7.066;2023-04-24T16:13:27;10.40;95.80
24162;DHT22;12318;51.262;7.066;2023-04-24T16:15:54;10.50;95.10
24162;DHT22;12318;51.262;7.066;2023-04-24T16:18:20;10.00;95.20
24162;DHT22;12318;51.262;7.066;2023-04-24T16:20:46;9.80;97.00
24162;DHT22;12318;51.262;7.066;2023-04-24T16:23:11;9.60;97.00
24162;DHT22;12318;51.262;7.066;2023-04-24T16:25:39;9.50;98.00
24162;DHT22;12318;51.262;7.066;2023-04-24T16:28:04;9.50;98.00
24162;DHT22;12318;51.262;7.066;2023-04-24T16:30:30;9.50;97.60
24162;DHT22;12318;51.262;7.066;2023-04-24T16:32:56;9.70;99.10
24162;DHT22;12318;51.262;7.066;2023-04-24T16:35:22;9.80;99.90
24162;DHT22;12318;51.262;7.066;2023-04-24T16:37:48;9.60;99.00
24162;DHT22;12318;51.262;7.066;2023-04-24T16:40:13;9.50;99.90
24162;DHT22;12318;51.262;7.066;2023-04-24T16:42:40;9.60;99.90
24162;DHT22;12318;51.262;7.066;2023-04-24T16:45:07;9.60;99.90
24162;DHT22;12318;51.262;7.066;2023-04-24T16:47:33;9.90;99.90
24162;DHT22;12318;51.262;7.066;2023-04-24T16:49:59;10.00;99.80
24162;DHT22;12318;51.262;7.066;2023-04-24T16:52:24;9.80;99.90
24162;DHT22;12318;51.262;7.066;2023-04-24T16:54:50;9.70;99.90
24162;DHT22;12318;51.262;7.066;2023-04-24T16:57:16;9.70;99.90
24162;DHT22;12318;51.262;7.066;2023-04-24T16:59:41;9.60;99.90
24162;DHT22;12318;51.262;7.066;2023-04-24T17:02:08;9.70;99.90
24162;DHT22;12318;51.262;7.066;2023-04-24T17:04:34;9.80;99.90